createdAt,value
2022-08-02T00:02:25.399Z,70.59
2022-08-02T00:04:56.988Z,70.90
2022-08-02T00:07:28.630Z,71.13
2022-08-02T00:10:05.597Z,71.43
2022-08-02T00:12:39.913Z,71.16
2022-08-02T00:15:16.025Z,71.57
2022-08-02T00:17:49.446Z,71.67
2022-08-02T00:20:21.260Z,72.10
2022-08-02T00:22:59.938Z,72.21
2022-08-02T00:25:34.561Z,72.28
2022-08-02T00:28:06.154Z,72.19
2022-08-02T00:30:38.449Z,72.46
2022-08-02T00:33:10.083Z,72.65
2022-08-02T00:35:47.286Z,72.45
2022-08-02T00:38:18.994Z,72.76
2022-08-02T00:40:56.485Z,72.63
2022-08-02T00:43:29.601Z,73.08
2022-08-02T00:46:03.207Z,73.01
2022-08-02T00:48:35.565Z,73.49
2022-08-02T00:51:13.954Z,73.66
2022-08-02T00:53:45.637Z,73.84
2022-08-02T00:56:17.245Z,74.03
2022-08-02T00:58:51.154Z,74.09
2022-08-02T01:01:38.572Z,73.60
2022-08-02T01:04:30.216Z,73.63
2022-08-02T01:07:12.887Z,73.48
2022-08-02T01:09:46.717Z,73.73
2022-08-02T01:12:20.746Z,73.65
2022-08-02T01:14:58.721Z,73.69
2022-08-02T01:17:59.462Z,74.03
2022-08-02T01:21:10.707Z,74.10
2022-08-02T01:23:57.597Z,74.47
2022-08-02T01:26:46.890Z,74.52
2022-08-02T01:29:34.842Z,74.45
2022-08-02T01:32:13.402Z,73.95
2022-08-02T01:35:04.467Z,74.25
2022-08-02T01:37:47.921Z,74.04
2022-08-02T01:40:27.754Z,73.86
2022-08-02T01:43:01.316Z,73.86
2022-08-02T01:45:35.820Z,73.83
2022-08-02T01:48:12.449Z,73.93
2022-08-02T01:50:48.319Z,74.20
2022-08-02T01:53:23.009Z,73.85
2022-08-02T01:55:59.160Z,73.98
2022-08-02T01:58:33.878Z,73.91
2022-08-02T02:01:10.438Z,74.19
2022-08-02T02:03:48.914Z,74.12
2022-08-02T02:06:22.910Z,74.29
2022-08-02T02:08:55.913Z,74.41
2022-08-02T02:12:11.804Z,74.72
2022-08-02T02:14:20.793Z,75.02
2022-08-02T02:16:56.877Z,75.23
2022-08-02T02:19:29.224Z,75.36
2022-08-02T02:22:01.538Z,74.96
2022-08-02T02:24:37.297Z,75.42
2022-08-02T02:27:11.896Z,75.31
2022-08-02T02:29:52.276Z,75.37
2022-08-02T02:32:27.618Z,74.94
2022-08-02T02:35:01.442Z,74.88
2022-08-02T02:37:35.378Z,75.36
2022-08-02T02:40:09.083Z,75.89
2022-08-02T02:42:43.037Z,76.03
2022-08-02T02:45:21.954Z,75.69
2022-08-02T02:47:55.941Z,75.68
2022-08-02T02:50:28.716Z,75.62
2022-08-02T02:53:01.475Z,75.80
2022-08-02T02:55:34.158Z,75.51
2022-08-02T02:58:12.798Z,75.51
2022-08-02T03:01:03.778Z,75.84
2022-08-02T03:03:36.163Z,75.66
2022-08-02T03:06:15.800Z,75.55
2022-08-02T03:08:47.985Z,76.03
2022-08-02T03:11:20.064Z,76.06
2022-08-02T03:13:53.860Z,76.43
2022-08-02T03:16:28.333Z,76.55
2022-08-02T03:19:02.080Z,76.47
2022-08-02T03:21:33.637Z,76.27
2022-08-02T03:24:06.608Z,76.33
2022-08-02T03:26:42.216Z,76.22
2022-08-02T03:29:13.958Z,76.44
2022-08-02T03:31:51.454Z,76.46
2022-08-02T03:34:26.729Z,76.50
2022-08-02T03:36:59.856Z,76.20
2022-08-02T03:39:35.704Z,76.10
2022-08-02T03:42:09.131Z,76.11
2022-08-02T03:44:48.963Z,75.92
2022-08-02T03:47:22.056Z,75.82
2022-08-02T03:49:55.950Z,75.90
2022-08-02T03:52:31.546Z,75.80
2022-08-02T03:55:03.849Z,75.54
2022-08-02T03:57:39.750Z,75.76
2022-08-02T04:00:18.011Z,75.68
2022-08-02T04:02:50.065Z,75.90
2022-08-02T04:05:21.922Z,75.82
2022-08-02T04:08:33.786Z,75.73
2022-08-02T04:11:04.475Z,75.57
2022-08-02T04:13:37.838Z,75.50
2022-08-02T04:16:23.259Z,75.48
2022-08-02T04:19:05.505Z,75.50
2022-08-02T04:21:51.357Z,75.77
2022-08-02T04:24:32.178Z,75.80
2022-08-02T04:27:49.123Z,75.61
2022-08-02T04:30:00.811Z,76.11
2022-08-02T04:32:33.142Z,76.16
2022-08-02T04:35:21.124Z,76.22
2022-08-02T04:38:09.999Z,75.88
2022-08-02T04:40:54.036Z,75.68
2022-08-02T04:43:27.851Z,75.57
2022-08-02T04:46:02.687Z,75.21
2022-08-02T04:48:34.410Z,74.55
2022-08-02T04:51:06.761Z,74.26
2022-08-02T04:53:38.391Z,73.75
2022-08-02T04:56:11.212Z,72.87
2022-08-02T04:58:44.890Z,71.97
2022-08-02T05:01:16.791Z,71.11
2022-08-02T05:03:48.476Z,70.31
2022-08-02T05:06:20.299Z,69.66
2022-08-02T05:08:53.300Z,69.00
2022-08-02T05:11:36.210Z,68.30
2022-08-02T05:14:09.026Z,67.31
2022-08-02T05:16:40.620Z,66.79
2022-08-02T05:19:12.261Z,66.73
2022-08-02T05:21:43.851Z,66.64
2022-08-02T05:24:15.598Z,65.90
2022-08-02T05:26:47.209Z,65.38
2022-08-02T05:29:21.414Z,64.35
2022-08-02T05:31:53.128Z,63.40
2022-08-02T05:34:24.809Z,62.81
2022-08-02T05:36:56.975Z,62.48
2022-08-02T05:39:31.905Z,61.45
2022-08-02T05:42:03.879Z,61.12
2022-08-02T05:44:35.568Z,60.35
2022-08-02T05:47:07.450Z,60.47
2022-08-02T05:49:39.102Z,60.14
2022-08-02T05:52:19.731Z,59.55
2022-08-02T05:55:16.077Z,59.32
2022-08-02T05:58:12.470Z,58.67
2022-08-02T06:00:45.585Z,57.67
2022-08-02T06:03:31.372Z,57.04
2022-08-02T06:06:13.382Z,56.21
2022-08-02T06:08:49.860Z,56.04
2022-08-02T06:11:23.560Z,55.45
2022-08-02T06:14:04.409Z,55.16
2022-08-02T06:16:41.917Z,54.67
2022-08-02T06:19:14.110Z,54.40
2022-08-02T06:22:32.599Z,52.68
2022-08-02T06:24:38.125Z,53.00
2022-08-02T06:27:10.995Z,52.07
2022-08-02T06:29:48.769Z,52.13
2022-08-02T06:32:21.707Z,52.06
2022-08-02T06:34:53.318Z,51.82
2022-08-02T06:37:35.845Z,52.04
2022-08-02T06:40:18.842Z,51.57
2022-08-02T06:43:14.700Z,50.20
2022-08-02T06:45:46.395Z,49.70
2022-08-02T06:48:18.132Z,49.42
2022-08-02T06:50:49.762Z,48.61
2022-08-02T06:53:21.414Z,47.88
2022-08-02T06:55:52.999Z,47.51
2022-08-02T06:58:24.748Z,47.48
2022-08-02T07:00:56.751Z,46.61
2022-08-02T07:03:28.588Z,45.74
2022-08-02T07:06:00.307Z,45.35
2022-08-02T07:08:34.041Z,46.82
2022-08-02T07:11:06.571Z,45.02
2022-08-02T07:13:39.955Z,44.83
2022-08-02T07:16:11.758Z,44.80
2022-08-02T07:18:43.380Z,43.97
2022-08-02T07:21:14.957Z,44.32
2022-08-02T07:23:47.716Z,44.70
2022-08-02T07:26:19.303Z,43.68
2022-08-02T07:28:51.003Z,43.42
2022-08-02T07:31:22.875Z,42.83
2022-08-02T07:33:54.530Z,41.42
2022-08-02T07:36:26.131Z,42.30
2022-08-02T07:38:58.117Z,41.58
2022-08-02T07:41:30.222Z,41.08
2022-08-02T07:44:02.123Z,40.42
2022-08-02T07:46:33.783Z,40.09
2022-08-02T07:49:05.530Z,41.22
2022-08-02T07:51:37.190Z,40.30
2022-08-02T07:54:08.779Z,39.39
2022-08-02T07:56:41.777Z,38.10
2022-08-02T07:59:13.492Z,39.68
2022-08-02T08:01:46.239Z,39.86
2022-08-02T08:04:18.541Z,38.09
2022-08-02T08:06:52.174Z,39.40
2022-08-02T08:09:23.934Z,38.58
2022-08-02T08:11:55.566Z,38.53
2022-08-02T08:14:27.190Z,38.15
2022-08-02T08:16:58.786Z,37.70
2022-08-02T08:19:36.498Z,36.50
2022-08-02T08:22:23.680Z,36.81
2022-08-02T08:24:55.274Z,36.60
2022-08-02T08:27:26.903Z,35.87
2022-08-02T08:29:58.565Z,35.53
2022-08-02T08:32:30.228Z,36.54
2022-08-02T08:35:03.850Z,36.65
2022-08-02T08:37:39.479Z,35.81
2022-08-02T08:40:12.640Z,35.99
2022-08-02T08:42:44.267Z,35.85
2022-08-02T08:45:17.936Z,36.13
2022-08-02T08:48:00.252Z,35.32
2022-08-02T08:50:36.541Z,35.64
2022-08-02T08:53:09.077Z,36.69
2022-08-02T08:55:45.380Z,37.54
2022-08-02T08:58:17.212Z,37.77
2022-08-02T09:00:49.297Z,37.81
2022-08-02T09:03:22.852Z,38.65
2022-08-02T09:05:59.073Z,38.55
2022-08-02T09:08:31.113Z,38.16
2022-08-02T09:11:12.759Z,38.41
2022-08-02T09:13:56.674Z,40.40
2022-08-02T09:16:37.665Z,40.74
2022-08-02T09:19:20.592Z,41.94
2022-08-02T09:22:01.739Z,41.38
2022-08-02T09:24:48.072Z,41.13
2022-08-02T09:27:23.131Z,40.89
2022-08-02T09:30:12.269Z,40.83
2022-08-02T09:32:47.858Z,41.82
2022-08-02T09:36:07.354Z,41.70
2022-08-02T09:38:29.410Z,41.59
2022-08-02T09:41:01.842Z,39.69
2022-08-02T09:43:38.617Z,39.91
2022-08-02T09:46:32.343Z,38.96
2022-08-02T09:49:09.119Z,40.29
2022-08-02T09:51:47.353Z,40.32
2022-08-02T09:54:23.193Z,40.58
2022-08-02T09:57:00.659Z,41.37
2022-08-02T09:59:32.656Z,42.03
2022-08-02T10:02:17.576Z,40.43
2022-08-02T10:04:54.193Z,40.56
2022-08-02T10:07:26.075Z,40.06
2022-08-02T10:09:58.196Z,38.80
2022-08-02T10:12:30.139Z,38.11
2022-08-02T10:15:02.496Z,36.82
2022-08-02T10:17:35.553Z,37.03
2022-08-02T10:20:07.705Z,37.30
2022-08-02T10:22:40.805Z,37.65
2022-08-02T10:25:13.311Z,37.43
2022-08-02T10:28:04.109Z,37.49
2022-08-02T10:30:39.490Z,37.01
2022-08-02T10:33:13.148Z,36.53
2022-08-02T10:35:47.514Z,37.09
2022-08-02T10:38:36.884Z,37.63
2022-08-02T10:41:08.553Z,37.50
2022-08-02T10:43:43.124Z,37.81
2022-08-02T10:46:35.757Z,37.91
2022-08-02T10:49:39.285Z,37.90
2022-08-02T10:52:14.335Z,38.95
2022-08-02T10:54:59.323Z,38.80
2022-08-02T10:57:36.444Z,39.18
2022-08-02T11:00:19.240Z,38.99
2022-08-02T11:02:54.181Z,37.43
2022-08-02T11:05:42.212Z,37.92
2022-08-02T11:08:22.504Z,37.62
2022-08-02T11:11:10.007Z,38.26
2022-08-02T11:14:02.587Z,36.93
2022-08-02T11:16:56.609Z,36.92
2022-08-02T11:19:29.172Z,36.54
2022-08-02T11:22:11.720Z,36.91
2022-08-02T11:24:43.510Z,36.59
2022-08-02T11:27:21.925Z,36.80
2022-08-02T11:29:54.059Z,36.53
2022-08-02T11:32:30.561Z,36.53
2022-08-02T11:35:03.542Z,36.07
2022-08-02T11:37:36.694Z,36.24
2022-08-02T11:40:18.947Z,36.23
2022-08-02T11:42:53.648Z,35.85
2022-08-02T11:45:29.738Z,34.92
2022-08-02T11:48:01.635Z,35.67
2022-08-02T11:50:33.990Z,36.45
2022-08-02T11:53:16.412Z,36.29
2022-08-02T11:55:48.154Z,37.38
2022-08-02T11:58:19.716Z,36.84
2022-08-02T12:00:53.837Z,36.59
2022-08-02T12:03:25.477Z,36.57
2022-08-02T12:06:06.108Z,36.17
2022-08-02T12:08:38.625Z,35.79
2022-08-02T12:11:10.276Z,35.66
2022-08-02T12:13:44.245Z,34.92
2022-08-02T12:16:34.672Z,35.12
2022-08-02T12:19:18.919Z,35.58
2022-08-02T12:22:10.067Z,35.71
2022-08-02T12:24:50.934Z,36.03
2022-08-02T12:27:35.189Z,36.15
2022-08-02T12:30:10.739Z,35.81
2022-08-02T12:32:43.258Z,35.70
2022-08-02T12:35:26.836Z,36.70
2022-08-02T12:38:10.442Z,36.07
2022-08-02T12:40:42.473Z,35.09
2022-08-02T12:43:32.394Z,35.33
2022-08-02T12:46:04.230Z,34.56
2022-08-02T12:48:52.290Z,34.87
2022-08-02T12:51:56.485Z,35.19
2022-08-02T12:54:40.381Z,34.54
2022-08-02T12:57:14.263Z,34.00
2022-08-02T12:59:53.248Z,33.99
2022-08-02T13:02:25.071Z,34.01
2022-08-02T13:05:00.036Z,32.96
2022-08-02T13:07:31.626Z,33.17
2022-08-02T13:10:03.853Z,34.34
2022-08-02T13:12:37.436Z,33.75
2022-08-02T13:15:12.342Z,33.87
2022-08-02T13:18:01.921Z,34.12
2022-08-02T13:20:33.588Z,34.22
2022-08-02T13:23:06.187Z,34.61
2022-08-02T13:25:37.945Z,34.65
2022-08-02T13:28:09.552Z,35.03
2022-08-02T13:30:41.198Z,35.24
2022-08-02T13:33:13.179Z,34.97
2022-08-02T13:35:45.934Z,35.64
2022-08-02T13:38:19.843Z,35.25
2022-08-02T13:41:09.798Z,35.35
2022-08-02T13:43:52.792Z,35.46
2022-08-02T13:46:29.006Z,35.71
2022-08-02T13:49:01.955Z,35.37
2022-08-02T13:51:33.824Z,36.62
2022-08-02T13:54:08.958Z,36.61
2022-08-02T13:56:40.617Z,36.21
2022-08-02T13:59:54.110Z,35.89
2022-08-02T14:02:03.991Z,35.63
2022-08-02T14:04:36.873Z,35.39
2022-08-02T14:07:08.596Z,35.20
2022-08-02T14:09:40.578Z,35.06
2022-08-02T14:12:13.372Z,34.09
2022-08-02T14:14:45.206Z,34.32
2022-08-02T14:17:18.951Z,34.44
2022-08-02T14:19:50.958Z,34.68
2022-08-02T14:22:23.005Z,34.38
2022-08-02T14:24:57.551Z,34.89
2022-08-02T14:27:40.518Z,34.45
2022-08-02T14:30:12.644Z,33.99
2022-08-02T14:32:44.764Z,33.90
2022-08-02T14:35:16.443Z,34.62
2022-08-02T14:37:48.099Z,34.66
2022-08-02T14:40:30.768Z,34.42
2022-08-02T14:43:04.195Z,33.90
2022-08-02T14:45:39.764Z,34.08
2022-08-02T14:48:12.874Z,34.20
2022-08-02T14:50:44.473Z,34.11
2022-08-02T14:53:16.130Z,34.02
2022-08-02T14:55:47.809Z,34.29
2022-08-02T14:58:19.750Z,33.55
2022-08-02T15:00:51.426Z,33.35
2022-08-02T15:03:24.433Z,33.92
2022-08-02T15:05:56.448Z,33.68
2022-08-02T15:08:28.088Z,33.86
2022-08-02T15:10:59.655Z,33.82
2022-08-02T15:13:31.270Z,33.82
2022-08-02T15:16:03.275Z,34.04
2022-08-02T15:18:34.902Z,34.51
2022-08-02T15:21:40.334Z,33.99
2022-08-02T15:23:58.783Z,33.71
2022-08-02T15:26:30.330Z,33.55
2022-08-02T15:29:01.982Z,33.95
2022-08-02T15:31:33.831Z,34.08
2022-08-02T15:34:06.129Z,33.95
2022-08-02T15:36:37.826Z,34.01
2022-08-02T15:39:09.566Z,34.07
2022-08-02T15:41:41.178Z,33.81
2022-08-02T15:44:14.042Z,33.79
2022-08-02T15:46:45.636Z,33.88
2022-08-02T15:49:17.599Z,33.90
2022-08-02T15:51:50.790Z,34.17
2022-08-02T15:54:24.466Z,34.28
2022-08-02T15:56:56.033Z,34.71
2022-08-02T15:59:27.706Z,34.64
2022-08-02T16:01:59.337Z,34.34
2022-08-02T16:04:31.796Z,33.87
2022-08-02T16:07:03.605Z,34.38
2022-08-02T16:09:36.140Z,34.04
2022-08-02T16:12:08.175Z,34.25
2022-08-02T16:14:39.997Z,34.20
2022-08-02T16:17:11.586Z,34.77
2022-08-02T16:19:49.156Z,34.10
2022-08-02T16:22:22.233Z,34.35
2022-08-02T16:24:53.866Z,34.73
2022-08-02T16:27:25.492Z,34.38
2022-08-02T16:29:57.215Z,34.79
2022-08-02T16:32:28.813Z,34.44
2022-08-02T16:35:07.650Z,34.91
2022-08-02T16:37:51.943Z,34.67
2022-08-02T16:40:24.382Z,34.98
2022-08-02T16:42:56.309Z,34.63
2022-08-02T16:45:28.509Z,34.55
2022-08-02T16:48:05.641Z,34.78
2022-08-02T16:50:37.794Z,34.69
2022-08-02T16:53:12.200Z,35.07
2022-08-02T16:55:52.005Z,34.49
2022-08-02T16:58:27.424Z,34.49
2022-08-02T17:00:59.061Z,34.91
2022-08-02T17:03:55.709Z,35.00
2022-08-02T17:06:22.342Z,34.82
2022-08-02T17:08:58.074Z,35.01
2022-08-02T17:11:30.960Z,35.06
2022-08-02T17:14:02.845Z,35.03
2022-08-02T17:16:35.461Z,35.23
2022-08-02T17:19:07.874Z,35.39
2022-08-02T17:21:39.505Z,35.09
2022-08-02T17:24:11.058Z,35.20
2022-08-02T17:26:43.511Z,35.44
2022-08-02T17:29:18.016Z,35.27
2022-08-02T17:32:05.853Z,35.61
2022-08-02T17:34:40.895Z,35.96
2022-08-02T17:37:28.706Z,36.20
2022-08-02T17:40:03.001Z,35.92
2022-08-02T17:42:36.228Z,36.33
2022-08-02T17:45:17.085Z,36.42
2022-08-02T17:48:04.646Z,36.07
2022-08-02T17:50:37.329Z,36.17
2022-08-02T17:53:09.030Z,36.00
2022-08-02T17:55:42.553Z,36.38
2022-08-02T17:58:17.406Z,36.71
2022-08-02T18:00:48.984Z,36.20
2022-08-02T18:03:22.932Z,36.84
2022-08-02T18:05:55.370Z,36.76
2022-08-02T18:08:27.671Z,36.85
2022-08-02T18:10:59.284Z,37.09
2022-08-02T18:13:33.039Z,37.41
2022-08-02T18:16:20.944Z,37.36
2022-08-02T18:18:53.182Z,37.90
2022-08-02T18:21:24.806Z,37.90
2022-08-02T18:23:58.693Z,38.05
2022-08-02T18:26:30.944Z,37.69
2022-08-02T18:29:04.914Z,37.70
2022-08-02T18:31:40.228Z,37.90
2022-08-02T18:34:24.275Z,38.13
2022-08-02T18:36:56.038Z,38.24
2022-08-02T18:39:27.915Z,38.11
2022-08-02T18:42:04.832Z,38.32
2022-08-02T18:44:36.790Z,38.46
2022-08-02T18:47:11.429Z,38.82
2022-08-02T18:49:46.686Z,38.62
2022-08-02T18:52:31.607Z,38.88
2022-08-02T18:55:10.169Z,39.08
2022-08-02T18:58:16.946Z,39.03
2022-08-02T19:00:41.906Z,39.14
2022-08-02T19:03:14.929Z,39.19
2022-08-02T19:05:52.133Z,39.35
2022-08-02T19:08:26.275Z,39.23
2022-08-02T19:10:58.176Z,39.50
2022-08-02T19:13:36.951Z,39.60
2022-08-02T19:16:12.377Z,39.85
2022-08-02T19:18:44.085Z,39.90
2022-08-02T19:21:18.468Z,40.21
2022-08-02T19:24:10.134Z,40.83
2022-08-02T19:26:42.078Z,41.29
2022-08-02T19:29:13.821Z,41.53
2022-08-02T19:32:00.226Z,41.49
2022-08-02T19:34:34.039Z,41.35
2022-08-02T19:37:09.721Z,41.37
2022-08-02T19:39:49.161Z,41.55
2022-08-02T19:42:22.018Z,41.94
2022-08-02T19:44:53.694Z,42.02
2022-08-02T19:47:25.341Z,42.07
2022-08-02T19:50:14.812Z,42.68
2022-08-02T19:52:47.058Z,42.88
2022-08-02T19:56:00.260Z,42.96
2022-08-02T19:58:16.114Z,43.90
2022-08-02T20:00:47.726Z,44.79
2022-08-02T20:03:20.672Z,44.44
2022-08-02T20:06:13.764Z,44.71
2022-08-02T20:08:53.355Z,44.84
2022-08-02T20:11:34.710Z,45.17
2022-08-02T20:14:07.656Z,45.31
2022-08-02T20:16:39.471Z,45.59
2022-08-02T20:19:13.935Z,45.89
2022-08-02T20:21:52.954Z,45.98
2022-08-02T20:24:29.990Z,46.21
2022-08-02T20:27:02.080Z,46.79
2022-08-02T20:29:43.133Z,47.18
2022-08-02T20:32:23.722Z,47.44
2022-08-02T20:34:55.433Z,47.35
2022-08-02T20:38:00.380Z,47.82
2022-08-02T20:40:18.997Z,48.16
2022-08-02T20:42:51.274Z,48.21
2022-08-02T20:45:27.115Z,48.60
2022-08-02T20:47:58.897Z,49.12
2022-08-02T20:50:50.753Z,49.27
2022-08-02T20:53:23.625Z,49.62
2022-08-02T20:55:57.653Z,49.64
2022-08-02T20:58:29.388Z,49.66
2022-08-02T21:01:02.773Z,50.26
2022-08-02T21:03:40.136Z,50.56
2022-08-02T21:06:15.029Z,50.40
2022-08-02T21:08:48.595Z,50.41
2022-08-02T21:11:20.264Z,50.62
2022-08-02T21:14:07.528Z,50.11
2022-08-02T21:16:40.547Z,50.54
2022-08-02T21:19:12.438Z,50.74
2022-08-02T21:21:43.993Z,50.79
2022-08-02T21:24:17.662Z,50.86
2022-08-02T21:26:56.206Z,51.02
2022-08-02T21:29:28.258Z,51.51
2022-08-02T21:32:05.139Z,51.69
2022-08-02T21:34:36.906Z,52.27
2022-08-02T21:37:09.781Z,52.28
2022-08-02T21:39:41.831Z,51.97
2022-08-02T21:42:22.321Z,52.07
2022-08-02T21:44:55.716Z,52.67
2022-08-02T21:47:27.425Z,51.90
2022-08-02T21:50:13.358Z,52.42
2022-08-02T21:52:52.333Z,52.36
2022-08-02T21:56:00.540Z,52.27
2022-08-02T21:58:15.917Z,52.35
2022-08-02T22:00:51.725Z,52.86
2022-08-02T22:03:23.843Z,52.77
2022-08-02T22:05:55.492Z,53.52
2022-08-02T22:08:27.199Z,53.26
2022-08-02T22:11:03.268Z,53.71
2022-08-02T22:13:38.748Z,53.60
2022-08-02T22:16:19.347Z,53.85
2022-08-02T22:18:52.764Z,53.88
2022-08-02T22:21:32.379Z,54.12
2022-08-02T22:24:19.419Z,54.43
2022-08-02T22:27:01.185Z,54.09
2022-08-02T22:29:34.122Z,54.10
2022-08-02T22:32:06.557Z,54.38
2022-08-02T22:34:51.820Z,54.54
2022-08-02T22:38:15.039Z,54.54
2022-08-02T22:40:15.702Z,54.54
2022-08-02T22:42:48.810Z,54.69
2022-08-02T22:45:21.130Z,54.51
2022-08-02T22:47:55.734Z,54.09
2022-08-02T22:50:27.609Z,54.08
2022-08-02T22:52:59.741Z,54.29
2022-08-02T22:55:41.379Z,54.45
2022-08-02T22:58:13.842Z,54.68
2022-08-02T23:00:45.904Z,54.81
2022-08-02T23:03:17.457Z,54.85
2022-08-02T23:05:50.037Z,55.22
2022-08-02T23:08:22.089Z,55.77
2022-08-02T23:10:53.711Z,56.12
2022-08-02T23:13:28.274Z,55.97
2022-08-02T23:16:18.289Z,55.78
2022-08-02T23:19:25.324Z,55.95
2022-08-02T23:22:01.707Z,56.44
2022-08-02T23:24:35.782Z,56.55
2022-08-02T23:27:07.485Z,56.88
2022-08-02T23:29:39.078Z,57.01
2022-08-02T23:32:11.032Z,57.14
2022-08-02T23:34:43.311Z,57.55
2022-08-02T23:37:14.916Z,57.53
2022-08-02T23:39:46.549Z,57.73
2022-08-02T23:42:18.458Z,58.17
2022-08-02T23:44:50.231Z,57.84
2022-08-02T23:47:21.901Z,57.93
2022-08-02T23:49:53.550Z,58.29
2022-08-02T23:52:25.306Z,58.30
2022-08-02T23:54:56.924Z,58.62
2022-08-02T23:57:28.512Z,58.80
